createdAt,value
2018-03-30T00:02:14.289Z,4.97
2018-03-30T00:04:42.596Z,4.73
2018-03-30T00:07:10.120Z,5.67
2018-03-30T00:09:50.266Z,4.50
2018-03-30T00:12:17.784Z,5.00
2018-03-30T00:14:45.338Z,5.23
2018-03-30T00:17:12.866Z,5.97
2018-03-30T00:19:40.396Z,5.37
2018-03-30T00:22:08.696Z,5.40
2018-03-30T00:24:36.236Z,5.00
2018-03-30T00:27:03.762Z,5.70
2018-03-30T00:29:31.328Z,5.63
2018-03-30T00:31:59.638Z,6.30
2018-03-30T00:34:27.946Z,6.40
2018-03-30T00:36:55.488Z,5.17
2018-03-30T00:39:23.025Z,6.00
2018-03-30T00:41:50.536Z,6.47
2018-03-30T00:44:18.089Z,5.07
2018-03-30T00:46:45.602Z,6.03
2018-03-30T00:49:13.148Z,5.37
2018-03-30T00:51:41.458Z,4.87
2018-03-30T00:54:09.017Z,5.73
2018-03-30T00:56:36.544Z,5.40
2018-03-30T00:59:04.848Z,5.57
2018-03-30T01:01:32.364Z,5.60
2018-03-30T01:03:59.900Z,5.53
2018-03-30T01:06:27.420Z,6.03
2018-03-30T01:08:54.968Z,6.13
2018-03-30T01:11:22.492Z,6.40
2018-03-30T01:13:50.032Z,6.50
2018-03-30T01:16:17.552Z,6.10
2018-03-30T01:18:45.088Z,6.03
2018-03-30T01:21:13.377Z,6.57
2018-03-30T01:23:40.940Z,6.97
2018-03-30T01:26:08.468Z,6.30
2018-03-30T01:28:35.999Z,7.13
2018-03-30T01:31:03.532Z,6.37
2018-03-30T01:33:31.078Z,7.03
2018-03-30T01:35:58.602Z,7.10
2018-03-30T01:38:26.136Z,7.00
2018-03-30T01:40:53.656Z,6.23
2018-03-30T01:43:21.205Z,6.33
2018-03-30T01:45:48.726Z,6.53
2018-03-30T01:48:16.272Z,6.90
2018-03-30T01:50:43.793Z,6.57
2018-03-30T01:53:11.340Z,7.53
2018-03-30T01:55:38.864Z,6.20
2018-03-30T01:58:06.404Z,6.77
2018-03-30T02:00:33.948Z,6.83
2018-03-30T02:03:01.469Z,6.60
2018-03-30T02:05:29.012Z,7.47
2018-03-30T02:07:57.303Z,7.37
2018-03-30T02:10:24.852Z,6.70
2018-03-30T02:12:53.154Z,5.97
2018-03-30T02:15:20.713Z,7.53
2018-03-30T02:17:48.245Z,7.17
2018-03-30T02:20:15.785Z,7.70
2018-03-30T02:22:44.073Z,7.77
2018-03-30T02:25:12.384Z,7.53
2018-03-30T02:27:39.908Z,7.53
2018-03-30T02:30:08.209Z,9.10
2018-03-30T02:32:35.732Z,9.40
2018-03-30T02:35:04.051Z,10.27
2018-03-30T02:37:31.576Z,9.93
2018-03-30T02:39:59.887Z,10.37
2018-03-30T02:42:27.422Z,8.13
2018-03-30T02:44:54.980Z,7.43
2018-03-30T02:47:22.511Z,7.90
2018-03-30T02:49:50.054Z,7.67
2018-03-30T02:52:17.617Z,7.13
2018-03-30T02:54:45.162Z,8.20
2018-03-30T02:57:12.706Z,8.37
2018-03-30T02:59:40.259Z,8.23
2018-03-30T03:02:07.790Z,8.40
2018-03-30T03:04:35.341Z,8.77
2018-03-30T03:07:02.864Z,8.17
2018-03-30T03:09:30.412Z,9.40
2018-03-30T03:11:57.941Z,9.87
2018-03-30T03:14:25.497Z,8.40
2018-03-30T03:16:53.023Z,9.37
2018-03-30T03:19:21.327Z,10.63
2018-03-30T03:21:48.844Z,11.33
2018-03-30T03:24:16.393Z,11.93
2018-03-30T03:26:43.924Z,12.33
2018-03-30T03:29:11.476Z,11.23
2018-03-30T03:31:39.009Z,11.87
2018-03-30T03:34:06.558Z,11.40
2018-03-30T03:36:34.112Z,10.37
2018-03-30T03:39:02.432Z,9.97
2018-03-30T03:41:29.977Z,10.33
2018-03-30T03:43:57.528Z,10.17
2018-03-30T03:46:25.059Z,10.20
2018-03-30T03:48:53.378Z,10.97
2018-03-30T03:51:20.907Z,10.40
2018-03-30T03:53:48.468Z,11.33
2018-03-30T03:56:15.996Z,12.13
2018-03-30T03:58:43.524Z,13.40
2018-03-30T04:01:11.076Z,12.30
2018-03-30T04:03:38.600Z,11.77
2018-03-30T04:06:06.152Z,11.43
2018-03-30T04:08:33.685Z,12.63
2018-03-30T04:11:01.237Z,13.20
2018-03-30T04:13:28.768Z,13.13
2018-03-30T04:15:56.306Z,14.23
2018-03-30T04:18:23.844Z,13.40
2018-03-30T04:20:51.412Z,12.97
2018-03-30T04:23:18.940Z,12.17
2018-03-30T04:25:46.487Z,13.67
2018-03-30T04:28:14.024Z,15.80
2018-03-30T04:30:41.573Z,17.40
2018-03-30T04:33:09.093Z,18.60
2018-03-30T04:35:37.420Z,21.60
2018-03-30T04:38:04.954Z,21.77
2018-03-30T04:40:33.311Z,21.00
2018-03-30T04:43:00.804Z,20.20
2018-03-30T04:45:28.352Z,19.40
2018-03-30T04:47:55.888Z,17.90
2018-03-30T04:50:23.445Z,17.83
2018-03-30T04:52:50.968Z,17.33
2018-03-30T04:55:18.585Z,17.77
2018-03-30T04:57:46.088Z,18.23
2018-03-30T05:00:13.628Z,18.27
2018-03-30T05:02:41.170Z,17.03
2018-03-30T05:05:08.728Z,18.07
2018-03-30T05:07:36.273Z,18.40
2018-03-30T05:10:03.831Z,16.93
2018-03-30T05:12:31.371Z,16.17
2018-03-30T05:14:58.924Z,15.93
2018-03-30T05:17:26.456Z,15.00
2018-03-30T05:19:54.772Z,15.37
2018-03-30T05:22:22.300Z,16.53
2018-03-30T05:24:50.601Z,17.20
2018-03-30T05:27:18.140Z,17.93
2018-03-30T05:29:46.450Z,17.53
2018-03-30T05:32:13.990Z,19.13
2018-03-30T05:34:41.544Z,16.63
2018-03-30T05:37:09.082Z,17.53
2018-03-30T05:39:37.403Z,17.97
2018-03-30T05:42:04.941Z,17.77
2018-03-30T05:44:32.496Z,17.90
2018-03-30T05:47:00.020Z,17.70
2018-03-30T05:49:27.566Z,16.80
2018-03-30T05:51:55.101Z,16.87
2018-03-30T05:54:22.638Z,21.23
2018-03-30T05:56:50.210Z,22.20
2018-03-30T05:59:17.736Z,22.30
2018-03-30T06:01:46.040Z,20.07
2018-03-30T06:04:13.583Z,18.80
2018-03-30T06:06:41.145Z,19.17
2018-03-30T06:09:08.813Z,18.53
2018-03-30T06:11:36.366Z,17.13
2018-03-30T06:14:03.901Z,15.43
2018-03-30T06:16:32.208Z,12.97
2018-03-30T06:18:59.734Z,12.23
2018-03-30T06:21:28.053Z,12.97
2018-03-30T06:23:55.594Z,12.07
2018-03-30T06:26:23.145Z,12.47
2018-03-30T06:28:50.681Z,11.73
2018-03-30T06:31:19.004Z,12.53
2018-03-30T06:33:46.528Z,13.60
2018-03-30T06:36:14.081Z,13.60
2018-03-30T06:38:42.369Z,12.43
2018-03-30T06:41:09.920Z,11.63
2018-03-30T06:43:38.228Z,11.47
2018-03-30T06:46:05.780Z,13.73
2018-03-30T06:48:33.298Z,12.57
2018-03-30T06:51:00.845Z,12.63
2018-03-30T06:53:28.368Z,13.70
2018-03-30T06:55:55.905Z,13.73
2018-03-30T06:58:23.429Z,13.10
2018-03-30T07:00:51.008Z,12.43
2018-03-30T07:03:19.299Z,11.67
2018-03-30T07:05:46.852Z,12.10
2018-03-30T07:08:14.385Z,12.57
2018-03-30T07:10:42.692Z,12.40
2018-03-30T07:16:04.786Z,11.97
2018-03-30T07:18:32.311Z,10.47
2018-03-30T07:20:59.853Z,10.00
2018-03-30T07:23:27.387Z,9.57
2018-03-30T07:25:55.701Z,9.80
2018-03-30T07:28:23.220Z,8.60
2018-03-30T07:30:51.533Z,8.43
2018-03-30T07:36:17.659Z,9.32
2018-03-30T07:38:45.183Z,9.38
2018-03-30T07:41:12.725Z,9.25
2018-03-30T07:43:40.257Z,8.40
2018-03-30T07:46:07.799Z,8.30
2018-03-30T07:48:35.319Z,8.55
2018-03-30T07:51:03.076Z,8.40
2018-03-30T07:53:30.600Z,8.15
2018-03-30T07:55:58.145Z,8.87
2018-03-30T07:58:25.665Z,8.57
2018-03-30T08:00:53.976Z,7.90
2018-03-30T08:03:21.494Z,8.37
2018-03-30T08:05:49.041Z,7.27
2018-03-30T08:08:16.592Z,8.73
2018-03-30T08:10:44.142Z,7.73
2018-03-30T08:13:11.662Z,7.33
2018-03-30T08:15:39.204Z,8.37
2018-03-30T08:18:07.492Z,8.23
2018-03-30T08:20:35.038Z,9.20
2018-03-30T08:23:02.564Z,9.50
2018-03-30T08:25:30.100Z,12.27
2018-03-30T08:27:57.646Z,10.80
2018-03-30T08:30:25.174Z,12.40
2018-03-30T08:32:52.731Z,13.60
2018-03-30T08:35:21.038Z,11.37
2018-03-30T08:37:48.577Z,7.87
2018-03-30T08:40:16.096Z,7.37
2018-03-30T08:42:43.667Z,8.63
2018-03-30T08:45:11.199Z,7.33
2018-03-30T08:47:38.745Z,8.77
2018-03-30T08:50:06.265Z,7.30
2018-03-30T08:52:33.812Z,7.67
2018-03-30T08:55:02.101Z,14.00
2018-03-30T08:57:29.653Z,8.90
2018-03-30T08:59:57.992Z,7.83
2018-03-30T09:02:25.529Z,8.00
2018-03-30T09:04:53.052Z,8.57
2018-03-30T09:07:20.586Z,9.47
2018-03-30T09:09:48.100Z,8.83
2018-03-30T09:12:15.640Z,8.40
2018-03-30T09:14:43.163Z,7.70
2018-03-30T09:17:11.470Z,7.83
2018-03-30T09:19:39.732Z,7.93
2018-03-30T09:22:07.277Z,7.50
2018-03-30T09:24:35.586Z,8.07
2018-03-30T09:27:03.206Z,7.33
2018-03-30T09:29:30.696Z,6.63
2018-03-30T09:31:58.310Z,7.90
2018-03-30T09:34:25.848Z,7.80
2018-03-30T09:36:53.422Z,8.07
2018-03-30T09:39:20.960Z,7.00
2018-03-30T09:41:48.532Z,7.40
2018-03-30T09:44:16.083Z,7.97
2018-03-30T09:46:43.656Z,7.03
2018-03-30T09:49:12.128Z,6.87
2018-03-30T09:51:39.680Z,6.43
2018-03-30T09:54:07.209Z,6.82
2018-03-30T09:56:34.761Z,5.82
2018-03-30T09:59:02.277Z,6.90
2018-03-30T10:01:29.792Z,6.28
2018-03-30T10:03:57.336Z,5.45
2018-03-30T10:06:24.856Z,6.28
2018-03-30T10:08:52.396Z,5.50
2018-03-30T10:11:19.915Z,5.40
2018-03-30T10:13:47.466Z,4.97
2018-03-30T10:16:14.988Z,4.90
2018-03-30T10:18:42.539Z,4.93
2018-03-30T10:21:10.060Z,5.20
2018-03-30T10:23:37.602Z,5.32
2018-03-30T10:26:05.125Z,5.10
2018-03-30T10:28:33.441Z,4.85
2018-03-30T10:31:00.972Z,5.00
2018-03-30T10:33:29.289Z,5.03
2018-03-30T10:35:56.808Z,4.65
2018-03-30T10:38:25.112Z,5.28
2018-03-30T10:40:52.628Z,5.10
2018-03-30T10:43:20.173Z,4.25
2018-03-30T10:45:47.698Z,4.90
2018-03-30T10:48:15.240Z,4.93
2018-03-30T10:50:42.787Z,4.80
2018-03-30T10:53:10.305Z,5.25
2018-03-30T10:55:37.841Z,5.12
2018-03-30T10:58:05.379Z,5.30
2018-03-30T11:00:32.907Z,7.80
2018-03-30T11:03:01.215Z,4.93
2018-03-30T11:05:28.741Z,5.60
2018-03-30T11:07:56.295Z,4.93
2018-03-30T11:10:24.575Z,5.03
2018-03-30T11:12:52.878Z,4.87
2018-03-30T11:15:21.424Z,4.60
2018-03-30T11:17:49.736Z,4.70
2018-03-30T11:20:17.290Z,4.97
2018-03-30T11:22:44.837Z,4.93
2018-03-30T11:25:12.365Z,5.13
2018-03-30T11:27:39.908Z,8.47
2018-03-30T11:30:07.432Z,5.90
2018-03-30T11:32:34.981Z,9.50
2018-03-30T11:35:02.517Z,4.87
2018-03-30T11:37:30.816Z,5.03
2018-03-30T11:39:58.328Z,4.50
2018-03-30T11:42:25.866Z,4.80
2018-03-30T11:44:53.379Z,4.10
2018-03-30T11:47:20.924Z,4.57
2018-03-30T11:49:49.211Z,4.47
2018-03-30T11:52:16.752Z,4.37
2018-03-30T11:54:45.048Z,4.93
2018-03-30T11:57:12.584Z,4.20
2018-03-30T11:59:40.116Z,4.40
2018-03-30T12:02:07.656Z,5.30
2018-03-30T12:04:35.193Z,4.90
2018-03-30T12:07:02.945Z,4.85
2018-03-30T12:09:30.488Z,4.75
2018-03-30T12:11:58.775Z,4.70
2018-03-30T12:14:26.348Z,4.68
2018-03-30T12:16:53.869Z,5.43
2018-03-30T12:19:22.181Z,4.22
2018-03-30T12:21:49.718Z,3.97
2018-03-30T12:24:17.260Z,4.15
2018-03-30T12:26:45.553Z,3.78
2018-03-30T12:29:13.116Z,3.58
2018-03-30T12:31:40.647Z,3.62
2018-03-30T12:34:08.197Z,3.60
2018-03-30T12:36:35.723Z,3.05
2018-03-30T12:39:03.273Z,3.45
2018-03-30T12:41:30.793Z,2.40
2018-03-30T12:43:59.104Z,2.42
2018-03-30T12:46:26.633Z,2.33
2018-03-30T12:48:54.941Z,2.30
2018-03-30T12:51:22.472Z,2.00
2018-03-30T12:53:50.788Z,2.33
2018-03-30T12:56:18.317Z,2.00
2018-03-30T12:58:45.853Z,2.92
2018-03-30T13:01:14.140Z,3.10
2018-03-30T13:03:42.441Z,4.00
2018-03-30T13:06:10.001Z,2.72
2018-03-30T13:08:37.537Z,2.45
2018-03-30T13:11:05.056Z,2.60
2018-03-30T13:13:32.598Z,2.75
2018-03-30T13:16:00.130Z,1.90
2018-03-30T13:18:27.731Z,1.92
2018-03-30T13:20:55.232Z,2.05
2018-03-30T13:23:24.485Z,1.70
2018-03-30T13:25:52.013Z,1.73
2018-03-30T13:28:19.557Z,1.70
2018-03-30T13:30:47.092Z,1.73
2018-03-30T13:33:15.410Z,1.90
2018-03-30T13:35:42.930Z,1.77
2018-03-30T13:38:11.244Z,2.17
2018-03-30T13:40:39.550Z,2.08
2018-03-30T13:43:07.089Z,2.67
2018-03-30T13:45:34.616Z,2.33
2018-03-30T13:48:02.187Z,2.10
2018-03-30T13:53:29.215Z,1.67
2018-03-30T13:56:07.635Z,1.40
2018-03-30T13:58:36.869Z,1.50
2018-03-30T14:01:08.873Z,1.58
2018-03-30T14:06:58.139Z,2.40
2018-03-30T14:12:29.389Z,2.30
2018-03-30T14:14:56.932Z,2.42
2018-03-30T14:17:34.944Z,2.85
2018-03-30T14:20:07.415Z,2.58
2018-03-30T14:22:37.652Z,2.10
2018-03-30T14:25:10.016Z,2.28
2018-03-30T14:27:41.337Z,1.40
2018-03-30T14:30:09.756Z,1.70
2018-03-30T14:32:50.790Z,1.42
2018-03-30T14:35:22.749Z,1.98
2018-03-30T14:37:53.030Z,1.27
2018-03-30T14:40:21.361Z,1.35
2018-03-30T14:42:52.424Z,1.20
2018-03-30T14:45:38.613Z,1.30
2018-03-30T14:48:10.020Z,1.57
2018-03-30T14:50:38.330Z,1.10
2018-03-30T14:53:07.508Z,1.37
2018-03-30T14:55:39.896Z,1.33
2018-03-30T14:58:19.032Z,1.00
2018-03-30T15:00:47.481Z,1.20
2018-03-30T15:03:25.747Z,1.00
2018-03-30T15:05:59.938Z,1.07
2018-03-30T15:08:38.285Z,1.00
2018-03-30T15:11:13.673Z,0.97
2018-03-30T15:13:44.944Z,0.90
2018-03-30T15:16:22.888Z,4.43
2018-03-30T15:18:56.617Z,1.00
2018-03-30T15:24:29.792Z,1.17
2018-03-30T15:26:57.329Z,1.00
2018-03-30T15:29:28.704Z,1.30
2018-03-30T15:32:11.915Z,1.13
2018-03-30T15:34:39.435Z,1.20
2018-03-30T15:37:15.808Z,0.90
2018-03-30T15:39:46.086Z,1.17
2018-03-30T15:42:15.204Z,1.10
2018-03-30T15:44:45.250Z,1.30
2018-03-30T15:47:12.780Z,1.60
2018-03-30T15:49:40.300Z,1.20
2018-03-30T15:52:08.601Z,1.23
2018-03-30T15:54:36.884Z,1.50
2018-03-30T15:57:04.439Z,1.00
2018-03-30T15:59:31.953Z,1.60
2018-03-30T16:01:59.472Z,1.43
2018-03-30T16:04:27.013Z,1.40
2018-03-30T16:06:54.536Z,1.50
2018-03-30T16:09:22.956Z,1.90
2018-03-30T16:11:50.476Z,1.30
2018-03-30T16:14:18.013Z,1.60
2018-03-30T16:16:45.528Z,2.10
2018-03-30T16:19:12.580Z,1.70
2018-03-30T16:21:39.612Z,1.40
2018-03-30T16:24:06.670Z,1.27
2018-03-30T16:26:33.700Z,1.63
2018-03-30T16:29:01.513Z,2.40
2018-03-30T16:31:28.541Z,2.50
2018-03-30T16:33:55.593Z,1.70
2018-03-30T16:36:22.628Z,1.30
2018-03-30T16:38:49.692Z,2.40
2018-03-30T16:41:16.715Z,2.07
2018-03-30T16:43:43.757Z,2.40
2018-03-30T16:46:10.784Z,2.40
2018-03-30T16:48:38.600Z,2.73
2018-03-30T16:51:05.637Z,2.53
2018-03-30T16:53:32.686Z,2.80
2018-03-30T16:55:59.721Z,3.23
2018-03-30T16:58:26.772Z,3.60
2018-03-30T17:00:53.800Z,3.30
2018-03-30T17:03:20.844Z,2.57
2018-03-30T17:05:47.879Z,2.97
2018-03-30T17:08:15.693Z,3.10
2018-03-30T17:10:42.735Z,2.60
2018-03-30T17:13:22.997Z,2.30
2018-03-30T17:15:50.016Z,2.20
2018-03-30T17:18:17.065Z,2.20
2018-03-30T17:20:44.089Z,2.00
2018-03-30T17:23:11.135Z,1.70
2018-03-30T17:25:38.919Z,1.63
2018-03-30T17:28:05.966Z,1.53
2018-03-30T17:30:33.768Z,3.30
2018-03-30T17:33:00.836Z,3.30
2018-03-30T17:35:27.868Z,4.57
2018-03-30T17:37:54.921Z,3.00
2018-03-30T17:40:22.008Z,2.50
2018-03-30T17:42:49.038Z,1.80
2018-03-30T17:45:16.865Z,2.40
2018-03-30T17:47:43.891Z,1.80
2018-03-30T17:50:10.937Z,1.70
2018-03-30T17:52:37.964Z,1.80
2018-03-30T17:55:05.013Z,3.53
2018-03-30T17:57:32.053Z,11.10
2018-03-30T17:59:59.096Z,9.00
2018-03-30T18:02:26.137Z,45.57
2018-03-30T18:04:53.953Z,21.70
2018-03-30T18:07:20.980Z,22.23
2018-03-30T18:09:48.033Z,4.67
2018-03-30T18:12:15.061Z,4.77
2018-03-30T18:14:42.104Z,4.07
2018-03-30T18:17:09.144Z,7.87
2018-03-30T18:19:36.245Z,15.47
2018-03-30T18:22:03.250Z,2.90
2018-03-30T18:24:30.371Z,9.87
2018-03-30T18:26:57.384Z,13.60
2018-03-30T18:29:24.449Z,13.60
2018-03-30T18:31:51.703Z,5.73
2018-03-30T18:34:19.526Z,5.37
2018-03-30T18:36:46.565Z,4.80
2018-03-30T18:39:13.601Z,7.47
2018-03-30T18:41:40.620Z,2.70
2018-03-30T18:44:08.441Z,5.10
2018-03-30T18:46:35.475Z,6.70
2018-03-30T18:49:02.533Z,7.47
2018-03-30T18:51:29.564Z,8.00
2018-03-30T18:53:56.605Z,4.87
2018-03-30T18:56:23.889Z,5.30
2018-03-30T18:58:51.083Z,4.30
2018-03-30T19:01:18.224Z,5.40
2018-03-30T19:03:45.301Z,5.80
2018-03-30T19:06:12.408Z,7.20
2018-03-30T19:08:40.282Z,6.43
2018-03-30T19:11:07.483Z,6.17
2018-03-30T19:13:34.695Z,4.90
2018-03-30T19:16:01.813Z,5.17
2018-03-30T19:18:29.006Z,7.73
2018-03-30T19:20:56.148Z,8.37
2018-03-30T19:23:24.138Z,9.67
2018-03-30T19:25:51.363Z,8.37
2018-03-30T19:28:18.486Z,12.27
2018-03-30T19:30:46.385Z,4.13
2018-03-30T19:33:14.526Z,5.90
2018-03-30T19:35:41.642Z,5.70
2018-03-30T19:38:08.733Z,6.10
2018-03-30T19:40:36.660Z,4.50
2018-03-30T19:43:03.810Z,5.67
2018-03-30T19:45:30.921Z,6.50
2018-03-30T19:47:58.025Z,6.47
2018-03-30T19:50:25.908Z,5.47
2018-03-30T19:52:53.010Z,4.63
2018-03-30T19:55:20.071Z,4.03
2018-03-30T19:57:47.121Z,3.63
2018-03-30T20:00:14.192Z,3.23
2018-03-30T20:02:42.010Z,3.73
2018-03-30T20:05:09.066Z,3.07
2018-03-30T20:07:36.104Z,4.63
2018-03-30T20:10:03.178Z,3.30
2018-03-30T20:12:30.220Z,2.93
2018-03-30T20:14:57.272Z,3.70
2018-03-30T20:17:24.306Z,3.60
2018-03-30T20:19:51.344Z,4.03
2018-03-30T20:22:18.438Z,2.47
2018-03-30T20:24:45.446Z,2.37
2018-03-30T20:27:12.482Z,2.37
2018-03-30T20:29:39.536Z,1.80
2018-03-30T20:32:11.964Z,2.20
2018-03-30T20:34:39.008Z,2.30
2018-03-30T20:37:06.797Z,2.60
2018-03-30T20:39:33.844Z,2.40
2018-03-30T20:42:00.885Z,2.80
2018-03-30T20:44:27.924Z,2.77
2018-03-30T20:46:54.959Z,3.07
2018-03-30T20:49:22.020Z,2.43
2018-03-30T20:51:49.043Z,3.47
2018-03-30T20:54:16.866Z,2.80
2018-03-30T20:56:43.896Z,2.93
2018-03-30T20:59:10.936Z,2.60
2018-03-30T21:01:37.958Z,3.20
2018-03-30T21:04:05.016Z,3.67
2018-03-30T21:06:32.041Z,3.23
2018-03-30T21:08:59.853Z,2.83
2018-03-30T21:11:26.884Z,2.50
2018-03-30T21:13:53.936Z,2.50
2018-03-30T21:16:20.984Z,2.37
2018-03-30T21:18:48.010Z,2.27
2018-03-30T21:21:15.058Z,2.53
2018-03-30T21:23:42.092Z,2.80
2018-03-30T21:26:09.153Z,2.40
2018-03-30T21:28:36.179Z,2.40
2018-03-30T21:31:03.991Z,2.70
2018-03-30T21:33:31.028Z,3.40
2018-03-30T21:35:58.074Z,3.10
2018-03-30T21:38:25.099Z,2.77
2018-03-30T21:40:52.152Z,2.87
2018-03-30T21:43:19.184Z,2.70
2018-03-30T21:45:46.240Z,2.57
2018-03-30T21:48:13.273Z,2.57
2018-03-30T21:50:41.085Z,2.10
2018-03-30T21:53:08.126Z,2.47
2018-03-30T21:55:35.181Z,2.73
2018-03-30T21:58:02.208Z,2.60
2018-03-30T22:00:29.252Z,2.60
2018-03-30T22:02:56.285Z,2.53
2018-03-30T22:05:23.339Z,2.77
2018-03-30T22:07:50.377Z,3.63
2018-03-30T22:10:17.421Z,3.00
2018-03-30T22:12:44.458Z,3.30
2018-03-30T22:15:12.269Z,3.37
2018-03-30T22:17:39.312Z,3.30
2018-03-30T22:20:06.365Z,4.23
2018-03-30T22:22:33.399Z,3.87
2018-03-30T22:25:00.446Z,5.03
2018-03-30T22:27:27.476Z,5.27
2018-03-30T22:29:54.524Z,4.80
2018-03-30T22:32:21.561Z,5.17
2018-03-30T22:34:48.616Z,4.30
2018-03-30T22:37:15.644Z,4.10
2018-03-30T22:39:42.696Z,4.40
2018-03-30T22:42:09.724Z,4.37
2018-03-30T22:44:37.546Z,3.83
2018-03-30T22:47:04.584Z,3.67
2018-03-30T22:49:31.649Z,4.37
2018-03-30T22:51:58.679Z,3.17
2018-03-30T22:54:25.729Z,4.20
2018-03-30T22:56:52.752Z,4.37
2018-03-30T22:59:19.793Z,4.43
2018-03-30T23:01:46.840Z,4.60
2018-03-30T23:04:13.871Z,3.27
2018-03-30T23:06:40.924Z,3.50
2018-03-30T23:09:07.952Z,4.10
2018-03-30T23:11:35.784Z,4.50
2018-03-30T23:14:02.821Z,4.40
2018-03-30T23:16:29.870Z,5.07
2018-03-30T23:18:56.906Z,4.43
2018-03-30T23:21:23.991Z,3.27
2018-03-30T23:23:51.026Z,4.80
2018-03-30T23:26:18.088Z,6.30
2018-03-30T23:28:45.905Z,8.20
2018-03-30T23:31:12.970Z,10.73
2018-03-30T23:33:40.044Z,8.57
2018-03-30T23:36:07.114Z,10.10
2018-03-30T23:38:34.160Z,10.33
2018-03-30T23:41:01.224Z,8.27
2018-03-30T23:43:28.254Z,9.00
2018-03-30T23:45:56.083Z,9.47
2018-03-30T23:48:23.113Z,10.40
2018-03-30T23:50:50.169Z,9.93
2018-03-30T23:53:17.204Z,10.67
2018-03-30T23:55:44.272Z,9.00
2018-03-30T23:58:11.318Z,11.43
